Time;durP1;ratioP1;P1;durP2;ratioP2;P2;SDS_P1;SDS_P2;PMS_P1;PMS_P2;Temp;Humidity;BMP_temperature;BMP_pressure;BME280_temperature;BME280_humidity;BME280_pressure;Samples;Min_cycle;Max_cycle;Signal;HPM_P1;HPM_P2
2022/09/08 00:01:45;;;;;;;6.10;1.87;;;18.30;99.90;;;;;;6060797;23;20172;-62
2022/09/08 00:04:13;;;;;;;2.07;1.63;;;18.30;99.90;;;;;;6058917;23;20169;-63
2022/09/08 00:06:41;;;;;;;2.77;1.83;;;18.20;99.90;;;;;;6031352;23;20183;-62
2022/09/08 00:09:10;;;;;;;4.03;2.20;;;18.10;99.90;;;;;;6058749;23;20196;-62
2022/09/08 00:11:41;;;;;;;3.63;1.90;;;18.00;99.90;;;;;;6033528;23;20172;-62
2022/09/08 00:14:12;;;;;;;5.97;2.20;;;17.90;99.90;;;;;;6059458;23;20174;-63
2022/09/08 00:16:41;;;;;;;4.80;2.17;;;17.80;99.90;;;;;;6058670;23;20166;-62
2022/09/08 00:19:10;;;;;;;4.20;2.37;;;17.60;99.90;;;;;;6033591;23;20172;-62
2022/09/08 00:21:40;;;;;;;7.47;2.80;;;17.50;99.90;;;;;;6058937;23;20172;-63
2022/09/08 00:24:09;;;;;;;5.07;2.10;;;17.40;99.90;;;;;;6032496;23;20149;-63
2022/09/08 00:26:38;;;;;;;4.33;2.23;;;17.40;99.90;;;;;;6058946;23;20956;-62
2022/09/08 00:29:06;;;;;;;5.37;2.60;;;17.30;99.90;;;;;;6060263;23;20194;-63
2022/09/08 00:31:39;;;;;;;5.70;2.37;;;17.30;99.90;;;;;;6061619;23;20180;-62
2022/09/08 00:34:09;;;;;;;3.57;2.13;;;17.20;99.90;;;;;;6060936;23;20227;-63
2022/09/08 00:36:38;;;;;;;8.77;2.23;;;17.20;99.90;;;;;;6058240;23;20727;-62
2022/09/08 00:39:06;;;;;;;7.40;2.43;;;17.10;99.90;;;;;;6058571;23;20168;-63
2022/09/08 00:41:35;;;;;;;5.40;2.70;;;17.10;99.90;;;;;;6058344;23;20176;-63
2022/09/08 00:44:38;;;;;;;5.90;2.40;;;17.10;99.90;;;;;;6032348;23;20188;-63
2022/09/08 00:47:15;;;;;;;4.40;2.80;;;17.10;99.90;;;;;;6057064;23;20168;-63
2022/09/08 00:49:47;;;;;;;3.27;2.20;;;17.00;99.90;;;;;;6032876;23;20203;-63
2022/09/08 00:52:15;;;;;;;5.83;2.60;;;17.00;99.90;;;;;;6057141;23;20175;-64
2022/09/08 00:54:44;;;;;;;5.77;2.57;;;17.00;99.90;;;;;;6031484;23;20628;-63
2022/09/08 00:57:13;;;;;;;3.00;2.60;;;17.00;99.90;;;;;;6055877;23;20570;-63
2022/09/08 00:59:42;;;;;;;5.17;2.80;;;17.00;99.90;;;;;;6058654;23;20167;-63
2022/09/08 01:02:25;;;;;;;5.63;2.87;;;17.00;99.90;;;;;;6057768;23;20242;-63
2022/09/08 01:04:58;;;;;;;4.10;3.17;;;17.00;99.90;;;;;;6033680;23;20605;-63
2022/09/08 01:13:24;;;;;;;5.43;2.93;;;16.90;99.90;;;;;;6056674;23;20504;-62
2022/09/08 01:15:53;;;;;;;3.90;2.83;;;16.90;99.90;;;;;;6057162;23;20176;-63
2022/09/08 01:18:23;;;;;;;7.47;3.43;;;16.90;99.90;;;;;;6058022;23;20175;-63
2022/09/08 01:20:59;;;;;;;3.83;3.07;;;16.90;99.90;;;;;;6057700;23;20186;-63
2022/09/08 01:24:00;;;;;;;11.63;3.40;;;16.90;99.90;;;;;;6056984;23;20173;-62
2022/09/08 01:26:50;;;;;;;5.10;3.00;;;16.90;99.90;;;;;;6057832;23;20170;-63
2022/09/08 01:29:21;;;;;;;8.27;3.60;;;16.80;99.90;;;;;;6057260;23;20174;-63
2022/09/08 01:31:53;;;;;;;8.53;3.43;;;16.80;99.90;;;;;;6056181;23;20219;-63
2022/09/08 01:34:23;;;;;;;4.60;3.40;;;16.80;99.90;;;;;;6059114;23;20168;-62
2022/09/08 01:36:51;;;;;;;3.90;2.90;;;16.80;99.90;;;;;;6060245;23;20222;-63
2022/09/08 01:39:20;;;;;;;6.23;3.43;;;16.90;99.90;;;;;;6059522;23;20550;-63
2022/09/08 01:41:48;;;;;;;6.27;3.57;;;16.90;99.90;;;;;;6057581;23;20165;-63
2022/09/08 01:44:16;;;;;;;6.63;3.60;;;16.90;99.90;;;;;;6056220;23;20209;-62
2022/09/08 01:46:46;;;;;;;10.37;3.93;;;16.90;99.90;;;;;;6056526;23;20172;-63
2022/09/08 01:49:15;;;;;;;12.90;4.03;;;16.90;99.90;;;;;;6031270;23;20178;-62
2022/09/08 01:51:44;;;;;;;5.57;3.90;;;16.80;99.90;;;;;;6055782;23;20189;-63
2022/09/08 01:54:12;;;;;;;7.73;4.23;;;16.80;99.90;;;;;;6030487;23;20174;-63
2022/09/08 01:56:41;;;;;;;6.60;4.23;;;16.90;99.90;;;;;;6054604;23;20170;-63
2022/09/08 01:59:09;;;;;;;6.33;5.27;;;16.90;99.90;;;;;;6057211;23;20175;-63
2022/09/08 02:01:38;;;;;;;7.47;5.57;;;16.90;99.90;;;;;;6056659;23;20170;-63
2022/09/08 02:04:08;;;;;;;9.10;5.23;;;16.80;99.90;;;;;;6031134;23;20527;-63
2022/09/08 02:06:36;;;;;;;6.83;4.90;;;16.90;99.90;;;;;;6056607;23;20171;-63
2022/09/08 02:09:04;;;;;;;8.77;5.60;;;16.80;99.90;;;;;;6059218;23;20641;-63
2022/09/08 02:11:33;;;;;;;7.97;5.50;;;16.90;99.90;;;;;;6058739;23;20499;-63
2022/09/08 02:14:02;;;;;;;8.93;5.33;;;16.80;99.90;;;;;;6058362;23;20168;-63
2022/09/08 02:16:31;;;;;;;8.10;5.30;;;16.80;99.90;;;;;;6056663;23;20152;-63
2022/09/08 02:19:00;;;;;;;12.30;6.03;;;16.80;99.90;;;;;;6031788;23;20171;-63
2022/09/08 02:21:29;;;;;;;9.27;5.50;;;16.80;99.90;;;;;;6033443;23;20153;-63
2022/09/08 02:23:59;;;;;;;9.90;5.97;;;16.70;99.90;;;;;;6058306;23;20168;-63
2022/09/08 02:26:30;;;;;;;11.37;6.00;;;16.80;99.90;;;;;;6059003;23;20169;-63
2022/09/08 02:28:58;;;;;;;10.03;6.07;;;16.80;99.90;;;;;;6059174;23;20611;-63
2022/09/08 02:31:28;;;;;;;10.23;6.60;;;16.80;99.90;;;;;;6058184;23;20208;-63
2022/09/08 02:33:57;;;;;;;12.63;6.47;;;16.80;99.90;;;;;;6059629;23;20802;-63
2022/09/08 02:36:25;;;;;;;8.90;6.20;;;16.80;99.90;;;;;;6058187;23;20169;-63
2022/09/08 02:38:57;;;;;;;9.10;6.87;;;16.80;99.90;;;;;;6059647;23;20270;-63
2022/09/08 02:41:27;;;;;;;13.77;6.77;;;16.80;99.90;;;;;;6035232;23;20173;-63
2022/09/08 02:43:56;;;;;;;13.30;6.90;;;16.80;99.90;;;;;;6060395;23;20273;-63
2022/09/08 02:46:25;;;;;;;12.23;6.83;;;16.80;99.90;;;;;;6059943;23;20183;-63
2022/09/08 02:48:53;;;;;;;8.30;6.83;;;16.80;99.90;;;;;;6033267;23;20164;-63
2022/09/08 02:51:23;;;;;;;11.97;7.30;;;16.70;99.90;;;;;;6057889;23;20189;-63
2022/09/08 02:53:55;;;;;;;18.67;7.73;;;16.70;99.90;;;;;;6033392;23;20177;-63
2022/09/08 02:56:24;;;;;;;13.37;7.47;;;16.70;99.90;;;;;;6059314;23;20634;-63
2022/09/08 02:58:54;;;;;;;15.60;7.13;;;16.70;99.90;;;;;;6058521;23;20161;-63
2022/09/08 03:01:23;;;;;;;13.87;6.93;;;16.70;99.90;;;;;;6056682;23;20172;-63
2022/09/08 03:03:52;;;;;;;8.67;7.13;;;16.70;99.90;;;;;;6058403;23;20167;-63
2022/09/08 03:06:20;;;;;;;10.83;6.87;;;16.70;99.90;;;;;;6057868;23;20206;-63
2022/09/08 03:08:49;;;;;;;9.93;6.73;;;16.80;99.90;;;;;;6058419;23;20198;-63
2022/09/08 03:11:19;;;;;;;11.40;7.10;;;16.80;99.90;;;;;;6058897;23;20911;-63
2022/09/08 03:13:47;;;;;;;9.10;6.83;;;16.70;99.90;;;;;;6058401;23;20174;-63
2022/09/08 03:16:15;;;;;;;10.27;6.57;;;16.70;99.90;;;;;;6059110;23;20177;-63
2022/09/08 03:18:44;;;;;;;11.03;6.87;;;16.70;99.90;;;;;;6061803;23;20170;-63
2022/09/08 03:21:14;;;;;;;8.90;6.10;;;16.80;99.90;;;;;;6059407;23;20696;-63
2022/09/08 03:23:43;;;;;;;13.90;6.20;;;16.70;99.90;;;;;;6058186;23;20163;-63
2022/09/08 03:26:13;;;;;;;12.53;6.27;;;16.80;99.90;;;;;;6056768;23;20185;-63
2022/09/08 03:28:44;;;;;;;10.50;6.27;;;16.70;99.90;;;;;;6057987;23;20220;-63
2022/09/08 03:31:15;;;;;;;10.93;6.73;;;16.70;99.90;;;;;;6057910;23;20188;-63
2022/09/08 03:33:44;;;;;;;13.20;7.30;;;16.70;99.90;;;;;;6059688;23;20192;-63
2022/09/08 03:36:14;;;;;;;10.40;6.50;;;16.60;99.90;;;;;;6033475;23;20246;-63
2022/09/08 03:38:43;;;;;;;8.97;7.30;;;16.60;99.90;;;;;;6032569;23;20181;-63
2022/09/08 03:41:13;;;;;;;10.03;7.10;;;16.60;99.90;;;;;;6057260;23;20178;-63
2022/09/08 03:43:45;;;;;;;13.30;7.17;;;16.50;99.90;;;;;;6057350;23;20201;-63
2022/09/08 03:46:15;;;;;;;10.50;6.60;;;16.50;99.90;;;;;;6057484;23;20741;-63
2022/09/08 03:48:43;;;;;;;14.23;7.30;;;16.50;99.90;;;;;;6060622;23;20201;-63
2022/09/08 03:51:13;;;;;;;13.27;7.10;;;16.40;99.90;;;;;;6060906;23;20170;-63
2022/09/08 03:53:43;;;;;;;13.37;6.83;;;16.40;99.90;;;;;;6059243;23;20233;-63
2022/09/08 03:56:13;;;;;;;12.47;6.50;;;16.40;99.90;;;;;;6057540;23;20158;-63
2022/09/08 03:58:42;;;;;;;14.87;6.77;;;16.40;99.90;;;;;;6057069;23;20182;-63
2022/09/08 04:01:14;;;;;;;14.67;6.07;;;16.40;99.90;;;;;;6056032;23;20164;-63
2022/09/08 04:03:43;;;;;;;9.37;6.17;;;16.40;99.90;;;;;;6056224;23;20658;-63
2022/09/08 04:06:13;;;;;;;17.40;5.87;;;16.30;99.90;;;;;;6032003;23;20264;-63
2022/09/08 04:08:41;;;;;;;9.37;5.40;;;16.30;99.90;;;;;;6032091;23;20203;-63
2022/09/08 04:11:10;;;;;;;8.37;5.87;;;16.20;99.90;;;;;;6032200;23;20180;-63
2022/09/08 04:13:39;;;;;;;10.63;5.53;;;16.20;99.90;;;;;;6031596;23;20579;-63
2022/09/08 04:16:08;;;;;;;10.60;5.80;;;16.10;99.90;;;;;;6055873;23;20774;-63
2022/09/08 04:18:38;;;;;;;9.90;6.00;;;16.10;99.90;;;;;;6058339;23;20172;-63
2022/09/08 04:21:06;;;;;;;11.20;5.77;;;16.00;99.90;;;;;;6059273;23;20180;-63
2022/09/08 04:23:35;;;;;;;10.97;5.20;;;16.00;99.90;;;;;;6057956;23;20178;-63
2022/09/08 04:26:06;;;;;;;7.00;4.93;;;16.00;99.90;;;;;;6058006;23;20170;-63
2022/09/08 04:28:36;;;;;;;8.63;4.90;;;15.90;99.90;;;;;;6056575;23;20170;-63
2022/09/08 04:31:05;;;;;;;9.10;4.10;;;15.80;99.90;;;;;;6055867;23;20171;-63
2022/09/08 04:33:33;;;;;;;7.50;4.47;;;15.90;99.90;;;;;;6057334;23;20201;-63
2022/09/08 04:36:08;;;;;;;12.33;5.20;;;15.80;99.90;;;;;;6057401;23;20678;-63
2022/09/08 04:38:57;;;;;;;10.93;4.37;;;15.80;99.90;;;;;;6032812;23;20644;-63
2022/09/08 04:41:27;;;;;;;7.03;4.07;;;15.80;99.90;;;;;;6058376;23;20180;-63
2022/09/08 04:44:00;;;;;;;8.87;4.73;;;15.80;99.90;;;;;;6057930;23;20193;-63
2022/09/08 04:46:29;;;;;;;8.90;5.10;;;15.70;99.90;;;;;;6056185;23;20611;-63
2022/09/08 04:48:58;;;;;;;5.93;4.73;;;15.70;99.90;;;;;;6057572;23;20202;-63
2022/09/08 04:51:30;;;;;;;9.10;5.00;;;15.70;99.90;;;;;;6033590;23;20163;-63
2022/09/08 04:53:59;;;;;;;10.80;4.53;;;15.70;99.90;;;;;;6059717;23;20757;-63
2022/09/08 04:56:29;;;;;;;7.90;4.40;;;15.70;99.90;;;;;;6034210;23;20175;-63
2022/09/08 04:58:59;;;;;;;13.27;5.20;;;15.70;99.90;;;;;;6058213;23;20174;-63
2022/09/08 05:01:30;;;;;;;12.30;5.47;;;15.70;99.90;;;;;;6058053;23;20488;-63
2022/09/08 05:04:01;;;;;;;7.53;4.70;;;15.70;99.90;;;;;;6059219;23;20658;-63
2022/09/08 05:06:33;;;;;;;8.50;5.40;;;15.70;99.90;;;;;;6032112;23;20811;-63
2022/09/08 05:09:03;;;;;;;9.70;5.60;;;15.70;99.90;;;;;;6032836;23;20280;-63
2022/09/08 05:11:33;;;;;;;13.60;6.00;;;15.70;99.90;;;;;;6058108;23;20176;-63
2022/09/08 05:14:02;;;;;;;9.53;5.60;;;15.80;99.90;;;;;;6058714;23;20658;-63
2022/09/08 05:16:30;;;;;;;8.37;5.50;;;15.80;99.90;;;;;;6055754;23;20181;-63
2022/09/08 05:19:03;;;;;;;11.37;6.27;;;15.80;99.90;;;;;;6056224;23;20627;-63
2022/09/08 05:21:34;;;;;;;12.00;6.17;;;15.80;99.90;;;;;;6055763;23;20169;-63
2022/09/08 05:24:04;;;;;;;11.67;6.50;;;15.80;99.90;;;;;;6057069;23;20240;-63
2022/09/08 05:26:33;;;;;;;19.30;7.07;;;15.70;99.90;;;;;;6038514;23;20161;-64
2022/09/08 05:29:03;;;;;;;9.73;6.53;;;15.70;99.90;;;;;;6037957;23;20533;-63
2022/09/08 05:31:33;;;;;;;12.53;7.20;;;15.70;99.90;;;;;;6063272;23;20169;-63
2022/09/08 05:34:01;;;;;;;14.30;7.30;;;15.80;99.90;;;;;;6038873;23;20190;-63
2022/09/08 05:36:33;;;;;;;14.97;6.97;;;15.80;99.90;;;;;;6062825;23;20174;-63
2022/09/08 05:39:06;;;;;;;9.47;6.80;;;15.80;99.90;;;;;;6063198;23;20228;-63
2022/09/08 05:41:35;;;;;;;11.70;7.10;;;15.90;99.90;;;;;;6064410;23;20191;-62
2022/09/08 05:44:03;;;;;;;12.23;6.90;;;15.90;99.90;;;;;;6064249;23;20681;-62
2022/09/08 05:46:31;;;;;;;9.40;7.03;;;15.90;99.90;;;;;;6035374;23;20175;-62
2022/09/08 05:49:01;;;;;;;12.63;6.87;;;15.90;99.90;;;;;;6062799;23;20482;-63
2022/09/08 05:51:32;;;;;;;11.03;7.07;;;16.00;99.90;;;;;;6064344;23;20176;-62
2022/09/08 05:54:01;;;;;;;9.07;7.33;;;16.00;99.90;;;;;;6038973;23;20198;-63
2022/09/08 05:56:31;;;;;;;11.43;7.77;;;16.10;99.90;;;;;;6065006;23;20191;-63
2022/09/08 05:59:00;;;;;;;8.23;7.37;;;16.10;99.90;;;;;;6040156;23;20181;-63
2022/09/08 06:01:29;;;;;;;13.57;7.07;;;16.10;99.90;;;;;;6039978;23;20180;-63
2022/09/08 06:03:59;;;;;;;11.97;7.33;;;16.20;99.90;;;;;;6040734;23;20619;-63
2022/09/08 06:06:28;;;;;;;9.50;6.90;;;16.20;99.90;;;;;;6040815;23;20167;-62
2022/09/08 06:09:00;;;;;;;10.37;6.50;;;16.30;99.90;;;;;;6066748;23;20651;-63
2022/09/08 06:11:29;;;;;;;8.90;7.13;;;16.30;99.90;;;;;;6066490;23;20526;-63
2022/09/08 06:13:58;;;;;;;12.43;6.60;;;16.30;99.90;;;;;;6066991;23;20193;-63
2022/09/08 06:16:27;;;;;;;13.50;6.33;;;16.40;99.90;;;;;;6066293;23;20173;-63
2022/09/08 06:19:00;;;;;;;9.43;6.63;;;16.30;99.90;;;;;;6066899;23;20170;-63
2022/09/08 06:21:29;;;;;;;10.67;6.43;;;16.30;99.90;;;;;;6066191;23;20184;-63
2022/09/08 06:24:01;;;;;;;11.83;6.37;;;16.40;99.90;;;;;;6066560;23;20175;-62
2022/09/08 06:26:54;;;;;;;7.27;6.00;;;16.40;99.90;;;;;;6064908;23;20611;-63
2022/09/08 06:29:36;;;;;;;14.60;6.07;;;16.50;99.90;;;;;;6064038;23;20170;-63
2022/09/08 06:32:23;;;;;;;10.33;5.57;;;16.50;99.90;;;;;;6065812;23;20166;-62
2022/09/08 06:34:55;;;;;;;9.87;5.73;;;16.50;99.90;;;;;;6040704;23;20168;-62
2022/09/08 06:37:31;;;;;;;9.17;5.13;;;16.50;99.90;;;;;;6064132;23;20173;-62
2022/09/08 06:40:09;;;;;;;6.60;5.00;;;16.50;99.90;;;;;;6065448;23;20194;-63
2022/09/08 06:42:47;;;;;;;7.57;5.00;;;16.50;99.90;;;;;;6064366;23;20172;-63
2022/09/08 06:45:23;;;;;;;8.13;4.73;;;16.60;99.90;;;;;;6066121;23;20164;-63
2022/09/08 06:48:07;;;;;;;8.50;4.60;;;16.70;99.90;;;;;;6039472;23;20170;-62
2022/09/08 06:50:41;;;;;;;7.43;4.20;;;16.70;99.90;;;;;;6064953;23;20195;-63
2022/09/08 06:53:16;;;;;;;8.90;4.20;;;16.80;99.90;;;;;;6041321;23;20190;-63
2022/09/08 06:55:53;;;;;;;10.27;4.13;;;16.90;99.90;;;;;;6066937;23;20155;-63
2022/09/08 06:58:44;;;;;;;6.67;3.93;;;17.00;99.90;;;;;;6040859;23;20256;-63
2022/09/08 07:01:20;;;;;;;5.30;3.93;;;17.00;99.90;;;;;;6066050;23;20723;-63
2022/09/08 07:04:04;;;;;;;4.20;3.80;;;17.00;99.90;;;;;;6065655;23;20224;-63
2022/09/08 07:06:36;;;;;;;7.90;4.23;;;17.10;99.90;;;;;;6066555;23;20173;-63
2022/09/08 07:09:16;;;;;;;6.50;4.33;;;17.20;99.90;;;;;;6067455;23;20207;-63
2022/09/08 07:11:58;;;;;;;7.50;3.80;;;17.30;99.90;;;;;;6042870;23;20609;-63
2022/09/08 07:15:03;;;;;;;7.53;3.47;;;17.50;99.90;;;;;;6068266;23;20605;-63
2022/09/08 07:17:36;;;;;;;6.07;3.40;;;17.70;99.90;;;;;;6067496;23;20802;-63
2022/09/08 07:20:11;;;;;;;4.63;2.97;;;18.00;99.90;;;;;;6067066;23;20171;-63
2022/09/08 07:22:45;;;;;;;5.40;3.10;;;17.90;99.90;;;;;;6042131;23;20175;-63
2022/09/08 07:25:25;;;;;;;6.03;3.47;;;17.90;99.90;;;;;;6068327;23;20167;-63
2022/09/08 07:28:05;;;;;;;6.83;2.83;;;17.90;99.90;;;;;;6067540;23;20175;-64
2022/09/08 07:30:36;;;;;;;6.57;3.10;;;17.80;99.90;;;;;;6042729;23;20175;-63
2022/09/08 07:33:14;;;;;;;6.53;2.83;;;17.80;99.90;;;;;;6066728;23;20175;-63
2022/09/08 07:35:54;;;;;;;5.33;3.00;;;17.80;99.90;;;;;;6067604;23;20206;-63
2022/09/08 07:38:31;;;;;;;5.23;2.83;;;17.70;99.90;;;;;;6067847;23;20168;-63
2022/09/08 07:40:59;;;;;;;7.43;3.20;;;17.70;99.90;;;;;;6065050;23;20168;-63
2022/09/08 07:43:29;;;;;;;2.77;2.57;;;17.70;99.90;;;;;;6067866;23;20167;-63
2022/09/08 07:46:12;;;;;;;4.37;2.50;;;17.60;99.90;;;;;;6065416;23;20175;-63
2022/09/08 07:48:49;;;;;;;6.07;2.60;;;17.60;99.90;;;;;;6041460;23;20240;-63
2022/09/08 07:51:19;;;;;;;4.00;2.60;;;17.70;99.90;;;;;;6066993;23;20596;-63
2022/09/08 07:54:17;;;;;;;6.07;2.50;;;17.70;99.90;;;;;;6067660;23;20637;-63
2022/09/08 07:56:52;;;;;;;8.27;2.33;;;18.00;99.90;;;;;;6067947;23;20175;-63
2022/09/08 07:59:48;;;;;;;4.63;2.20;;;18.20;99.90;;;;;;6068639;23;20238;-62
2022/09/08 08:02:31;;;;;;;7.50;2.50;;;18.40;99.90;;;;;;6068209;23;20602;-63
2022/09/08 08:05:08;;;;;;;10.50;2.63;;;18.40;99.90;;;;;;6067925;23;20195;-63
2022/09/08 08:07:44;;;;;;;5.43;2.30;;;18.50;99.90;;;;;;6066915;23;20218;-63
2022/09/08 08:10:22;;;;;;;6.30;2.10;;;18.50;99.90;;;;;;6067841;23;20486;-63
2022/09/08 08:12:58;;;;;;;7.63;2.50;;;18.40;99.90;;;;;;6067581;23;20601;-63
2022/09/08 08:15:36;;;;;;;5.57;2.33;;;18.30;99.90;;;;;;6042649;23;20232;-63
2022/09/08 08:18:11;;;;;;;4.73;2.47;;;18.40;99.90;;;;;;6041183;23;20164;-63
2022/09/08 08:20:50;;;;;;;6.70;2.50;;;18.50;99.90;;;;;;6067717;23;20165;-63
2022/09/08 08:23:35;;;;;;;4.67;2.10;;;18.60;99.90;;;;;;6068062;23;20598;-63
2022/09/08 08:26:12;;;;;;;6.77;2.20;;;18.30;99.90;;;;;;6067128;23;20170;-63
2022/09/08 08:28:42;;;;;;;7.73;2.13;;;18.30;99.90;;;;;;6067883;23;20489;-62
2022/09/08 08:31:29;;;;;;;5.77;2.60;;;18.40;99.90;;;;;;6068249;23;20696;-63
2022/09/08 08:34:05;;;;;;;3.17;2.10;;;18.40;99.90;;;;;;6042109;23;20192;-63
2022/09/08 08:36:39;;;;;;;4.23;1.90;;;18.30;99.90;;;;;;6067871;23;20172;-62
2022/09/08 08:39:12;;;;;;;4.40;2.27;;;18.30;99.90;;;;;;6067844;23;20169;-63
2022/09/08 08:42:04;;;;;;;3.57;2.10;;;18.40;99.90;;;;;;6043104;23;20166;-63
2022/09/08 08:44:56;;;;;;;4.00;1.93;;;18.30;99.90;;;;;;6064015;23;20172;-63
2022/09/08 08:47:59;;;;;;;5.33;2.17;;;18.40;99.90;;;;;;6068027;23;20165;-62
2022/09/08 08:50:46;;;;;;;4.73;1.83;;;18.40;99.90;;;;;;6067487;23;20172;-63
2022/09/08 08:53:45;;;;;;;4.40;2.20;;;18.50;99.90;;;;;;6042715;23;20630;-63
2022/09/08 08:56:34;;;;;;;3.33;1.90;;;18.70;99.90;;;;;;6067213;23;20247;-63
2022/09/08 08:59:44;;;;;;;7.77;2.20;;;19.00;99.90;;;;;;6042245;23;20246;-62
2022/09/08 09:02:24;;;;;;;4.87;1.97;;;19.20;99.90;;;;;;6066765;23;20255;-62
2022/09/08 09:05:34;;;;;;;5.40;1.80;;;19.50;99.90;;;;;;6067025;23;20212;-63
2022/09/08 09:08:39;;;;;;;7.93;1.90;;;19.80;99.90;;;;;;6067418;23;20502;-62
2022/09/08 09:11:42;;;;;;;5.33;1.93;;;20.10;99.90;;;;;;6068015;23;20171;-62
2022/09/08 09:14:43;;;;;;;11.20;2.47;;;19.90;99.90;;;;;;6049252;23;20192;-62
2022/09/08 09:17:45;;;;;;;6.27;2.27;;;20.00;99.90;;;;;;6039847;23;20670;-65
2022/09/08 09:20:54;;;;;;;6.67;2.00;;;20.60;99.90;;;;;;6066858;23;20812;-62
2022/09/08 09:23:40;;;;;;;6.30;1.90;;;20.90;99.90;;;;;;5951933;24;20175;-62
2022/09/08 09:26:18;;;;;;;4.03;1.80;;;21.20;99.90;;;;;;5951863;24;20193;-62
2022/09/08 09:28:55;;;;;;;5.20;1.60;;;21.50;99.90;;;;;;6032959;23;20496;-62
2022/09/08 09:32:05;;;;;;;7.90;2.10;;;21.50;99.90;;;;;;6067578;23;20195;-63
2022/09/08 09:34:57;;;;;;;11.37;1.80;;;21.50;99.90;;;;;;6028839;23;20200;-62
2022/09/08 09:37:40;;;;;;;4.87;1.67;;;21.50;99.90;;;;;;6044384;23;20614;-63
2022/09/08 09:40:37;;;;;;;6.67;2.30;;;21.60;99.90;;;;;;6067572;23;20189;-63
2022/09/08 09:43:34;;;;;;;5.47;2.00;;;21.50;99.90;;;;;;6042327;23;20164;-62
2022/09/08 09:46:27;;;;;;;4.23;1.80;;;21.70;99.90;;;;;;6065259;23;20614;-62
2022/09/08 09:49:28;;;;;;;2.87;1.63;;;21.20;99.90;;;;;;6066693;23;20605;-62
2022/09/08 09:52:09;;;;;;;2.90;1.57;;;21.00;99.90;;;;;;6067864;23;20161;-62
2022/09/08 09:54:57;;;;;;;4.70;1.67;;;20.80;99.90;;;;;;6067098;23;20180;-62
2022/09/08 09:58:03;;;;;;;5.63;1.87;;;21.10;99.90;;;;;;6067389;23;20479;-63
2022/09/08 10:00:38;;;;;;;4.80;1.77;;;21.30;99.90;;;;;;6067168;23;20168;-63
2022/09/08 10:03:45;;;;;;;5.63;1.73;;;21.50;99.90;;;;;;6067002;23;20595;-63
2022/09/08 10:06:40;;;;;;;6.23;1.70;;;21.50;99.90;;;;;;6041588;23;20224;-62
2022/09/08 10:09:57;;;;;;;7.30;1.80;;;21.00;99.90;;;;;;6041281;23;20169;-63
2022/09/08 10:13:09;;;;;;;5.83;1.80;;;20.80;99.90;;;;;;6066348;23;20197;-62
2022/09/08 10:16:17;;;;;;;7.70;1.83;;;21.20;99.90;;;;;;6030924;23;20188;-62
2022/09/08 10:19:25;;;;;;;8.07;1.97;;;21.70;99.90;;;;;;6065801;23;20246;-62
2022/09/08 10:22:26;;;;;;;8.93;1.67;;;21.80;99.90;;;;;;6039326;23;20464;-63
2022/09/08 10:25:25;;;;;;;5.93;1.60;;;22.10;99.90;;;;;;6062341;23;20169;-62
2022/09/08 10:28:44;;;;;;;6.23;2.13;;;22.20;99.90;;;;;;6039832;23;20168;-62
2022/09/08 10:32:03;;;;;;;8.00;2.10;;;22.40;99.90;;;;;;5949210;24;20198;-63
2022/09/08 10:35:05;;;;;;;6.53;1.80;;;23.00;99.90;;;;;;6039805;23;20621;-62
2022/09/08 10:38:17;;;;;;;5.50;1.80;;;23.30;99.90;;;;;;6066095;23;20600;-62
2022/09/08 10:41:06;;;;;;;7.63;2.30;;;23.40;99.90;;;;;;6014227;23;20179;-63
2022/09/08 10:44:08;;;;;;;6.13;1.70;;;23.50;99.90;;;;;;6066793;23;20169;-63
2022/09/08 10:47:11;;;;;;;4.43;1.80;;;23.60;99.90;;;;;;6029572;23;20176;-62
2022/09/08 10:50:03;;;;;;;4.53;2.00;;;23.90;99.90;;;;;;6067126;23;20548;-63
2022/09/08 10:52:51;;;;;;;7.07;1.60;;;24.00;99.90;;;;;;6067223;23;20164;-62
2022/09/08 10:55:42;;;;;;;6.47;2.17;;;23.50;99.90;;;;;;6067280;23;20191;-63
2022/09/08 10:58:40;;;;;;;5.90;2.10;;;23.10;99.90;;;;;;6067690;23;20160;-62
2022/09/08 11:01:28;;;;;;;7.53;2.00;;;22.70;99.90;;;;;;6066725;23;20186;-62
2022/09/08 11:04:29;;;;;;;4.77;1.67;;;22.90;99.90;;;;;;6067110;23;20475;-62
2022/09/08 11:09:53;;;;;;;7.20;1.80;;;23.30;99.90;;;;;;5092802;27;20576;-62
2022/09/08 11:12:57;;;;;;;4.77;1.70;;;23.10;99.90;;;;;;5087018;28;20682;-61
2022/09/08 11:15:58;;;;;;;5.57;1.80;;;23.60;99.90;;;;;;5084733;28;20195;-61
2022/09/08 11:18:36;;;;;;;5.93;1.70;;;23.20;99.90;;;;;;5080347;28;20194;-61
2022/09/08 11:21:09;;;;;;;4.63;1.90;;;23.00;99.90;;;;;;5087204;28;20426;-61
2022/09/08 11:23:54;;;;;;;3.33;1.90;;;22.90;99.90;;;;;;5078482;28;20199;-61
2022/09/08 11:26:46;;;;;;;8.23;2.10;;;22.60;99.90;;;;;;5106012;28;20194;-61
2022/09/08 11:29:16;;;;;;;4.93;2.07;;;22.60;99.90;;;;;;5093711;28;20304;-62
2022/09/08 11:31:58;;;;;;;5.70;1.63;;;22.90;99.90;;;;;;5088969;28;20191;-62
2022/09/08 11:34:57;;;;;;;2.83;1.70;;;23.40;99.90;;;;;;5090898;28;20197;-59
2022/09/08 11:37:48;;;;;;;1.53;1.33;;;23.60;99.90;;;;;;5080782;28;20567;-61
2022/09/08 11:40:45;;;;;;;2.30;1.37;;;24.20;99.90;;;;;;5090820;28;20273;-61
2022/09/08 11:43:35;;;;;;;2.77;1.80;;;24.20;99.90;;;;;;5086109;28;20208;-61
2022/09/08 11:46:24;;;;;;;8.03;1.43;;;23.60;99.90;;;;;;5090297;28;20217;-64
2022/09/08 11:49:12;;;;;;;4.83;1.40;;;23.20;99.90;;;;;;5092926;28;20218;-62
2022/09/08 11:52:22;;;;;;;6.00;1.73;;;22.80;99.90;;;;;;5081280;28;20194;-62
2022/09/08 11:55:25;;;;;;;2.50;1.50;;;22.70;99.90;;;;;;5074272;28;20208;-61
2022/09/08 11:58:06;;;;;;;5.23;1.93;;;22.90;99.90;;;;;;5068178;28;20189;-62
2022/09/08 12:01:07;;;;;;;5.70;1.80;;;22.60;99.90;;;;;;5068707;28;20212;-62
2022/09/08 12:04:03;;;;;;;4.13;1.60;;;22.30;99.90;;;;;;5074708;28;20216;-62
2022/09/08 12:07:06;;;;;;;4.87;1.53;;;21.80;99.90;;;;;;5104399;28;20192;-62
2022/09/08 12:10:00;;;;;;;3.23;1.77;;;21.60;99.90;;;;;;5101450;28;20223;-62
2022/09/08 12:12:41;;;;;;;5.80;1.87;;;21.30;99.90;;;;;;5069142;28;20279;-62
2022/09/08 12:15:41;;;;;;;8.07;2.03;;;21.00;99.90;;;;;;5069263;28;20209;-62
2022/09/08 12:18:27;;;;;;;4.77;1.67;;;20.80;99.90;;;;;;5066548;28;20207;-62
2022/09/08 12:21:17;;;;;;;4.63;1.60;;;20.40;99.90;;;;;;5074513;28;20227;-62
2022/09/08 12:23:50;;;;;;;4.10;1.90;;;20.30;99.90;;;;;;5092138;28;20294;-62
2022/09/08 12:26:35;;;;;;;7.17;1.97;;;20.40;99.90;;;;;;5089819;28;20530;-62
2022/09/08 12:29:34;;;;;;;6.43;2.10;;;20.60;99.90;;;;;;5096037;28;20225;-62
2022/09/08 12:32:33;;;;;;;6.53;1.90;;;20.90;99.90;;;;;;5079224;28;20245;-62
2022/09/08 12:35:24;;;;;;;3.13;1.90;;;21.20;99.90;;;;;;5094763;28;20195;-62
2022/09/08 12:38:24;;;;;;;9.10;2.47;;;21.30;99.90;;;;;;5085325;28;20193;-62
2022/09/08 12:41:13;;;;;;;4.53;2.07;;;21.40;99.90;;;;;;5061975;28;20208;-61
2022/09/08 12:43:42;;;;;;;4.57;2.10;;;21.60;99.90;;;;;;5075693;28;20200;-62
2022/09/08 12:46:53;;;;;;;7.70;2.10;;;21.90;99.90;;;;;;5075842;28;20207;-61
2022/09/08 12:49:38;;;;;;;3.47;1.67;;;22.00;99.90;;;;;;5075723;28;20220;-62
2022/09/08 12:52:15;;;;;;;4.63;2.00;;;21.80;99.90;;;;;;5074131;28;20200;-62
2022/09/08 12:54:57;;;;;;;4.63;2.07;;;21.60;99.90;;;;;;5075534;28;20508;-61
2022/09/08 12:57:44;;;;;;;3.00;2.10;;;21.40;99.90;;;;;;5075036;28;20686;-62
2022/09/08 13:00:14;;;;;;;5.83;1.70;;;21.30;99.90;;;;;;5075018;28;20200;-62
2022/09/08 13:03:10;;;;;;;2.77;1.67;;;21.40;99.90;;;;;;5072792;28;20207;-62
2022/09/08 13:06:20;;;;;;;4.70;1.87;;;21.30;99.90;;;;;;5054938;28;20250;-62
2022/09/08 13:08:59;;;;;;;4.57;1.80;;;21.50;99.90;;;;;;5053966;28;20243;-62
2022/09/08 13:12:00;;;;;;;2.23;1.60;;;22.00;99.90;;;;;;5055294;28;20275;-62
2022/09/08 13:14:42;;;;;;;7.23;1.80;;;22.30;99.90;;;;;;5027198;28;20217;-62
2022/09/08 13:17:18;;;;;;;3.50;1.73;;;22.30;99.90;;;;;;5055109;28;20193;-62
2022/09/08 13:20:16;;;;;;;3.60;1.97;;;22.10;99.90;;;;;;5079664;28;20199;-62
2022/09/08 13:22:48;;;;;;;6.10;2.00;;;21.90;99.90;;;;;;5073364;28;20208;-62
2022/09/08 13:25:25;;;;;;;5.13;1.70;;;21.80;99.90;;;;;;5073765;28;20180;-62
2022/09/08 13:28:12;;;;;;;7.20;1.90;;;21.60;99.90;;;;;;5073628;28;20197;-62
2022/09/08 13:30:48;;;;;;;5.67;1.80;;;21.50;99.90;;;;;;5074278;28;20226;-62
2022/09/08 13:33:50;;;;;;;3.57;1.57;;;21.80;99.90;;;;;;5074561;28;20181;-62
2022/09/08 13:36:32;;;;;;;4.30;1.80;;;22.00;99.90;;;;;;5057387;28;20660;-62
2022/09/08 13:39:17;;;;;;;5.57;1.50;;;22.20;99.90;;;;;;5055003;28;20181;-62
2022/09/08 13:42:05;;;;;;;3.93;1.80;;;22.40;99.90;;;;;;5054780;28;20198;-62
2022/09/08 13:44:56;;;;;;;5.13;1.90;;;22.70;99.90;;;;;;5054692;28;20208;-62
2022/09/08 13:48:00;;;;;;;4.17;1.90;;;22.80;99.90;;;;;;5054385;28;20529;-62
2022/09/08 13:51:17;;;;;;;5.90;2.00;;;22.40;99.90;;;;;;5053164;28;20214;-62
2022/09/08 13:54:08;;;;;;;7.03;1.80;;;22.00;99.90;;;;;;5054403;28;20636;-62
2022/09/08 13:56:55;;;;;;;4.67;2.07;;;21.70;99.90;;;;;;5040460;28;20201;-62
2022/09/08 13:59:33;;;;;;;2.53;1.60;;;21.40;99.90;;;;;;5053057;28;20192;-62